createdAt,value
2018-05-18T00:01:38.144Z,8.50
2018-05-18T00:04:04.193Z,8.93
2018-05-18T00:06:30.033Z,7.47
2018-05-18T00:08:55.720Z,6.73
2018-05-18T00:11:21.466Z,8.53
2018-05-18T00:13:47.208Z,8.47
2018-05-18T00:16:12.956Z,8.67
2018-05-18T00:18:39.004Z,8.63
2018-05-18T00:21:04.760Z,8.40
2018-05-18T00:23:30.492Z,7.73
2018-05-18T00:25:56.225Z,8.43
2018-05-18T00:28:22.016Z,9.00
2018-05-18T00:30:47.789Z,8.63
2018-05-18T00:33:13.520Z,8.63
2018-05-18T00:35:39.268Z,8.13
2018-05-18T00:38:05.626Z,8.10
2018-05-18T00:40:31.401Z,8.40
2018-05-18T00:42:57.136Z,7.60
2018-05-18T00:45:22.861Z,7.57
2018-05-18T00:47:48.593Z,7.60
2018-05-18T00:50:14.320Z,8.43
2018-05-18T00:52:40.045Z,9.30
2018-05-18T00:55:18.172Z,7.33
2018-05-18T00:57:43.960Z,8.87
2018-05-18T01:00:09.815Z,7.63
2018-05-18T01:02:35.605Z,8.67
2018-05-18T01:05:01.340Z,8.37
2018-05-18T01:07:27.070Z,8.07
2018-05-18T01:09:52.820Z,9.03
2018-05-18T01:12:18.569Z,8.77
2018-05-18T01:14:44.297Z,8.30
2018-05-18T01:17:10.042Z,9.00
2018-05-18T01:19:35.789Z,8.20
2018-05-18T01:22:01.545Z,6.80
2018-05-18T01:24:27.264Z,8.13
2018-05-18T01:26:53.014Z,8.27
2018-05-18T01:29:18.742Z,8.13
2018-05-18T01:31:44.484Z,8.63
2018-05-18T01:34:10.229Z,7.70
2018-05-18T01:36:36.037Z,7.70
2018-05-18T01:39:01.781Z,8.33
2018-05-18T01:41:27.668Z,7.97
2018-05-18T01:43:53.396Z,7.23
2018-05-18T01:46:19.127Z,8.33
2018-05-18T01:48:44.877Z,7.53
2018-05-18T01:51:10.608Z,6.70
2018-05-18T01:53:36.362Z,6.90
2018-05-18T01:56:02.152Z,8.70
2018-05-18T01:58:27.884Z,6.77
2018-05-18T02:00:53.623Z,7.63
2018-05-18T02:03:19.365Z,7.70
2018-05-18T02:05:45.100Z,7.60
2018-05-18T02:08:10.839Z,7.30
2018-05-18T02:10:36.566Z,8.10
2018-05-18T02:13:02.318Z,7.77
2018-05-18T02:15:28.057Z,8.00
2018-05-18T02:17:53.793Z,7.40
2018-05-18T02:20:19.528Z,8.03
2018-05-18T02:22:45.267Z,7.73
2018-05-18T02:25:11.001Z,7.00
2018-05-18T02:27:36.752Z,7.63
2018-05-18T02:30:02.492Z,8.77
2018-05-18T02:32:28.244Z,8.13
2018-05-18T02:34:53.964Z,8.67
2018-05-18T02:37:19.704Z,7.90
2018-05-18T02:39:45.440Z,7.47
2018-05-18T02:42:11.180Z,7.23
2018-05-18T02:44:36.922Z,7.30
2018-05-18T02:47:02.673Z,8.83
2018-05-18T02:49:28.407Z,8.47
2018-05-18T02:51:54.133Z,8.00
2018-05-18T02:54:19.868Z,8.33
2018-05-18T02:56:45.589Z,7.70
2018-05-18T02:59:11.330Z,7.47
2018-05-18T03:01:37.065Z,7.53
2018-05-18T03:04:02.813Z,7.13
2018-05-18T03:06:28.540Z,7.97
2018-05-18T03:08:54.288Z,7.50
2018-05-18T03:11:20.033Z,8.30
2018-05-18T03:13:45.774Z,7.80
2018-05-18T03:16:11.521Z,8.63
2018-05-18T03:18:37.256Z,8.53
2018-05-18T03:21:03.014Z,7.80
2018-05-18T03:23:28.740Z,8.70
2018-05-18T03:25:54.468Z,8.13
2018-05-18T03:28:20.215Z,8.23
2018-05-18T03:30:45.944Z,7.93
2018-05-18T03:33:11.678Z,7.60
2018-05-18T03:35:37.408Z,8.47
2018-05-18T03:38:03.148Z,8.03
2018-05-18T03:40:28.889Z,8.70
2018-05-18T03:42:54.641Z,7.67
2018-05-18T03:45:20.416Z,8.20
2018-05-18T03:47:46.167Z,7.23
2018-05-18T03:50:11.901Z,8.30
2018-05-18T03:52:37.645Z,7.17
2018-05-18T03:55:03.380Z,7.23
2018-05-18T03:57:29.120Z,7.30
2018-05-18T03:59:54.860Z,7.43
2018-05-18T04:02:33.056Z,7.90
2018-05-18T04:05:11.114Z,7.03
2018-05-18T04:07:49.337Z,6.20
2018-05-18T04:10:15.069Z,7.13
2018-05-18T04:12:40.826Z,7.57
2018-05-18T04:15:06.556Z,5.90
2018-05-18T04:17:32.275Z,6.80
2018-05-18T04:19:58.102Z,7.03
2018-05-18T04:22:23.752Z,7.40
2018-05-18T04:24:49.488Z,7.93
2018-05-18T04:27:15.227Z,7.47
2018-05-18T04:29:40.971Z,7.23
2018-05-18T04:32:06.715Z,6.83
2018-05-18T04:34:32.448Z,7.17
2018-05-18T04:36:58.223Z,7.07
2018-05-18T04:39:23.934Z,6.73
2018-05-18T04:41:49.661Z,6.93
2018-05-18T04:44:15.403Z,7.47
2018-05-18T04:46:41.137Z,7.07
2018-05-18T04:49:06.879Z,7.40
2018-05-18T04:51:32.613Z,7.43
2018-05-18T04:53:58.357Z,7.37
2018-05-18T04:56:24.084Z,7.03
2018-05-18T04:58:49.828Z,7.23
2018-05-18T05:01:15.555Z,6.87
2018-05-18T05:03:41.283Z,7.07
2018-05-18T05:06:07.020Z,7.10
2018-05-18T05:08:32.756Z,7.00
2018-05-18T05:10:58.488Z,7.10
2018-05-18T05:13:24.208Z,6.80
2018-05-18T05:15:49.945Z,6.43
2018-05-18T05:18:15.675Z,6.20
2018-05-18T05:20:41.421Z,6.33
2018-05-18T05:23:07.155Z,6.50
2018-05-18T05:25:32.874Z,6.90
2018-05-18T05:27:58.600Z,6.60
2018-05-18T05:30:24.359Z,6.93
2018-05-18T05:32:50.073Z,6.47
2018-05-18T05:35:15.808Z,5.83
2018-05-18T05:37:41.542Z,6.13
2018-05-18T05:40:07.284Z,7.13
2018-05-18T05:42:33.008Z,6.50
2018-05-18T05:44:58.757Z,6.93
2018-05-18T05:47:24.480Z,6.60
2018-05-18T05:49:57.044Z,5.70
2018-05-18T05:52:22.788Z,6.47
2018-05-18T05:54:48.515Z,6.73
2018-05-18T05:57:14.245Z,6.70
2018-05-18T05:59:39.988Z,6.50
2018-05-18T06:02:05.704Z,6.53
2018-05-18T06:04:31.432Z,5.83
2018-05-18T06:06:57.153Z,5.47
2018-05-18T06:09:22.889Z,6.20
2018-05-18T06:11:48.599Z,5.47
2018-05-18T06:14:14.360Z,6.00
2018-05-18T06:16:40.089Z,5.90
2018-05-18T06:19:05.824Z,6.00
2018-05-18T06:21:31.545Z,5.87
2018-05-18T06:23:57.264Z,6.30
2018-05-18T06:26:22.995Z,6.17
2018-05-18T06:28:48.784Z,5.47
2018-05-18T06:31:14.469Z,5.97
2018-05-18T06:33:40.196Z,5.60
2018-05-18T06:36:05.945Z,6.10
2018-05-18T06:38:31.676Z,6.57
2018-05-18T06:40:57.418Z,6.20
2018-05-18T06:43:23.144Z,6.10
2018-05-18T06:45:48.879Z,6.33
2018-05-18T06:48:14.600Z,5.47
2018-05-18T06:50:40.336Z,5.63
2018-05-18T06:53:06.063Z,5.80
2018-05-18T06:55:31.799Z,7.13
2018-05-18T06:57:57.534Z,6.47
2018-05-18T07:00:23.268Z,6.27
2018-05-18T07:02:49.005Z,6.10
2018-05-18T07:05:14.728Z,6.80
2018-05-18T07:07:40.456Z,6.10
2018-05-18T07:10:06.212Z,5.67
2018-05-18T07:12:31.944Z,6.03
2018-05-18T07:14:57.683Z,6.47
2018-05-18T07:17:23.421Z,6.80
2018-05-18T07:19:49.161Z,6.77
2018-05-18T07:22:14.889Z,6.07
2018-05-18T07:24:40.636Z,6.40
2018-05-18T07:27:06.364Z,6.30
2018-05-18T07:29:32.084Z,5.90
2018-05-18T07:31:57.816Z,5.70
2018-05-18T07:34:23.539Z,6.20
2018-05-18T07:36:49.273Z,5.70
2018-05-18T07:39:14.993Z,5.83
2018-05-18T07:41:40.743Z,6.10
2018-05-18T07:44:06.479Z,6.43
2018-05-18T07:46:32.211Z,6.30
2018-05-18T07:48:57.932Z,6.83
2018-05-18T07:51:23.665Z,5.83
2018-05-18T07:53:49.387Z,5.60
2018-05-18T07:56:15.124Z,5.30
2018-05-18T07:58:40.844Z,6.00
2018-05-18T08:01:06.592Z,6.07
2018-05-18T08:03:32.308Z,5.50
2018-05-18T08:05:58.049Z,6.73
2018-05-18T08:08:23.764Z,6.57
2018-05-18T08:10:49.509Z,6.30
2018-05-18T08:13:15.240Z,6.30
2018-05-18T08:15:40.976Z,5.83
2018-05-18T08:18:06.704Z,5.90
2018-05-18T08:20:32.438Z,6.30
2018-05-18T08:22:58.159Z,5.77
2018-05-18T08:25:23.896Z,6.30
2018-05-18T08:27:49.632Z,5.97
2018-05-18T08:30:15.393Z,5.63
2018-05-18T08:32:41.115Z,5.73
2018-05-18T08:35:06.854Z,6.07
2018-05-18T08:37:32.602Z,5.93
2018-05-18T08:39:58.317Z,6.33
2018-05-18T08:42:24.077Z,6.13
2018-05-18T08:44:49.810Z,5.57
2018-05-18T08:47:15.545Z,6.30
2018-05-18T08:49:41.276Z,6.10
2018-05-18T08:52:07.015Z,6.63
2018-05-18T08:54:32.743Z,6.17
2018-05-18T08:56:58.484Z,6.37
2018-05-18T08:59:24.211Z,6.70
2018-05-18T09:01:49.960Z,7.00
2018-05-18T09:04:15.705Z,6.80
2018-05-18T09:06:41.440Z,6.57
2018-05-18T09:09:07.167Z,6.93
2018-05-18T09:11:32.908Z,6.80
2018-05-18T09:13:58.648Z,6.90
2018-05-18T09:16:24.388Z,7.27
2018-05-18T09:18:50.112Z,7.23
2018-05-18T09:21:15.867Z,8.87
2018-05-18T09:23:41.600Z,9.43
2018-05-18T09:26:07.341Z,9.00
2018-05-18T09:28:33.064Z,8.67
2018-05-18T09:30:58.810Z,9.37
2018-05-18T09:33:24.540Z,8.30
2018-05-18T09:35:50.289Z,8.03
2018-05-18T09:38:16.013Z,9.53
2018-05-18T09:40:41.752Z,8.37
2018-05-18T09:43:07.501Z,8.30
2018-05-18T09:45:33.229Z,7.77
2018-05-18T09:47:58.972Z,7.57
2018-05-18T09:50:24.709Z,7.57
2018-05-18T09:52:57.517Z,7.27
2018-05-18T09:55:23.430Z,8.13
2018-05-18T09:57:49.000Z,7.27
2018-05-18T10:00:14.725Z,9.07
2018-05-18T10:02:40.472Z,8.97
2018-05-18T10:05:06.205Z,8.57
2018-05-18T10:07:31.936Z,8.40
2018-05-18T10:09:57.668Z,8.90
2018-05-18T10:12:23.489Z,9.03
2018-05-18T10:14:49.137Z,8.77
2018-05-18T10:17:14.883Z,8.90
2018-05-18T10:19:40.609Z,9.33
2018-05-18T10:22:06.349Z,8.97
2018-05-18T10:24:32.090Z,9.03
2018-05-18T10:26:57.835Z,8.67
2018-05-18T10:29:23.568Z,9.80
2018-05-18T10:31:49.307Z,9.10
2018-05-18T10:34:15.047Z,9.03
2018-05-18T10:36:40.804Z,9.40
2018-05-18T10:39:06.625Z,9.17
2018-05-18T10:41:32.285Z,8.40
2018-05-18T10:43:58.016Z,8.93
2018-05-18T10:46:23.760Z,8.77
2018-05-18T10:48:49.489Z,8.60
2018-05-18T10:51:15.228Z,8.23
2018-05-18T10:53:40.988Z,8.20
2018-05-18T10:56:06.723Z,8.03
2018-05-18T10:58:32.591Z,8.17
2018-05-18T11:00:58.196Z,8.03
2018-05-18T11:03:23.944Z,8.13
2018-05-18T11:05:49.669Z,7.27
2018-05-18T11:08:15.408Z,7.67
2018-05-18T11:10:41.148Z,7.60
2018-05-18T11:13:06.888Z,8.63
2018-05-18T11:15:32.616Z,8.70
2018-05-18T11:17:58.359Z,8.77
2018-05-18T11:20:24.092Z,7.90
2018-05-18T11:22:49.820Z,8.20
2018-05-18T11:25:15.552Z,8.93
2018-05-18T11:27:41.293Z,7.77
2018-05-18T11:30:07.033Z,7.47
2018-05-18T11:32:32.773Z,7.23
2018-05-18T11:34:58.504Z,8.00
2018-05-18T11:37:24.257Z,7.60
2018-05-18T11:39:49.989Z,8.00
2018-05-18T11:42:15.727Z,8.20
2018-05-18T11:44:41.469Z,7.67
2018-05-18T11:47:14.321Z,7.83
2018-05-18T11:49:40.052Z,8.57
2018-05-18T11:52:05.792Z,7.40
2018-05-18T11:54:31.524Z,7.50
2018-05-18T11:56:57.245Z,8.27
2018-05-18T11:59:22.992Z,8.00
2018-05-18T12:01:48.711Z,8.53
2018-05-18T12:04:14.453Z,8.60
2018-05-18T12:06:40.184Z,8.20
2018-05-18T12:09:05.926Z,7.63
2018-05-18T12:11:31.633Z,7.73
2018-05-18T12:13:57.406Z,7.33
2018-05-18T12:16:23.131Z,7.43
2018-05-18T12:18:48.877Z,6.97
2018-05-18T12:21:14.644Z,7.67
2018-05-18T12:23:40.397Z,7.60
2018-05-18T12:26:06.205Z,9.00
2018-05-18T12:28:31.905Z,8.00
2018-05-18T12:30:57.644Z,7.03
2018-05-18T12:33:23.379Z,7.13
2018-05-18T12:35:49.111Z,6.80
2018-05-18T12:38:14.969Z,7.80
2018-05-18T12:40:40.592Z,6.33
2018-05-18T12:43:06.322Z,7.80
2018-05-18T12:45:32.051Z,6.90
2018-05-18T12:47:57.796Z,7.17
2018-05-18T12:50:23.530Z,6.13
2018-05-18T12:52:49.282Z,7.30
2018-05-18T12:55:15.314Z,7.53
2018-05-18T12:57:41.140Z,8.70
2018-05-18T13:00:06.876Z,7.57
2018-05-18T13:02:32.612Z,8.37
2018-05-18T13:04:58.354Z,7.50
2018-05-18T13:07:24.093Z,7.63
2018-05-18T13:09:49.837Z,8.13
2018-05-18T13:12:15.581Z,8.87
2018-05-18T13:14:41.337Z,8.90
2018-05-18T13:17:07.077Z,8.57
2018-05-18T13:19:32.855Z,8.93
2018-05-18T13:21:58.614Z,9.07
2018-05-18T13:24:24.370Z,8.67
2018-05-18T13:26:50.106Z,8.43
2018-05-18T13:29:15.857Z,8.13
2018-05-18T13:31:41.585Z,8.20
2018-05-18T13:34:07.345Z,7.83
2018-05-18T13:36:33.106Z,8.47
2018-05-18T13:38:58.849Z,7.63
2018-05-18T13:41:24.590Z,7.40
2018-05-18T13:43:50.333Z,8.07
2018-05-18T13:46:16.064Z,7.17
2018-05-18T13:48:41.800Z,7.77
2018-05-18T13:51:07.532Z,7.90
2018-05-18T13:53:33.292Z,7.60
2018-05-18T13:55:59.020Z,7.50
2018-05-18T13:58:24.768Z,7.73
2018-05-18T14:00:50.493Z,7.63
2018-05-18T14:03:16.228Z,7.50
2018-05-18T14:05:41.989Z,7.57
2018-05-18T14:08:07.725Z,8.23
2018-05-18T14:10:33.461Z,7.00
2018-05-18T14:12:59.210Z,8.00
2018-05-18T14:15:24.960Z,7.57
2018-05-18T14:17:50.829Z,7.30
2018-05-18T14:23:34.062Z,7.27
2018-05-18T14:26:08.653Z,7.07
2018-05-18T14:28:34.680Z,7.40
2018-05-18T14:31:00.460Z,8.07
2018-05-18T14:33:26.179Z,7.83
2018-05-18T14:35:51.921Z,7.60
2018-05-18T14:38:17.660Z,6.43
2018-05-18T14:40:43.396Z,6.87
2018-05-18T14:43:09.252Z,6.90
2018-05-18T14:46:15.266Z,6.53
2018-05-18T14:48:41.030Z,7.33
2018-05-18T14:51:06.783Z,6.60
2018-05-18T14:53:32.548Z,6.97
2018-05-18T14:55:58.525Z,7.50
2018-05-18T14:58:24.708Z,6.70
2018-05-18T15:00:50.784Z,6.80
2018-05-18T15:03:16.762Z,8.03
2018-05-18T15:05:42.568Z,7.57
2018-05-18T15:10:40.585Z,6.93
2018-05-18T15:13:06.316Z,6.53
2018-05-18T15:15:32.064Z,7.07
2018-05-18T15:17:57.784Z,7.00
2018-05-18T15:20:23.533Z,7.30
2018-05-18T15:22:49.260Z,6.70
2018-05-18T15:25:15.014Z,6.90
2018-05-18T15:27:40.741Z,6.73
2018-05-18T15:30:06.482Z,7.60
2018-05-18T15:32:32.212Z,6.27
2018-05-18T15:34:57.952Z,6.67
2018-05-18T15:37:23.743Z,6.77
2018-05-18T15:39:49.419Z,6.90
2018-05-18T15:42:15.148Z,6.73
2018-05-18T15:44:40.876Z,7.07
2018-05-18T15:47:06.606Z,7.60
2018-05-18T15:49:32.345Z,7.43
2018-05-18T15:51:58.064Z,6.87
2018-05-18T15:54:23.824Z,6.97
2018-05-18T15:56:49.549Z,6.87
2018-05-18T15:59:15.304Z,7.00
2018-05-18T16:01:41.063Z,6.67
2018-05-18T16:04:06.785Z,6.97
2018-05-18T16:06:32.525Z,7.13
2018-05-18T16:08:58.240Z,7.03
2018-05-18T16:11:23.987Z,7.23
2018-05-18T16:13:49.719Z,6.83
2018-05-18T16:16:15.458Z,6.87
2018-05-18T16:18:41.186Z,8.07
2018-05-18T16:21:06.982Z,6.70
2018-05-18T16:23:32.694Z,6.80
2018-05-18T16:25:58.428Z,6.97
2018-05-18T16:28:24.160Z,7.47
2018-05-18T16:30:49.913Z,7.87
2018-05-18T16:33:15.649Z,6.77
2018-05-18T16:35:41.401Z,6.87
2018-05-18T16:38:07.126Z,7.40
2018-05-18T16:40:32.874Z,7.63
2018-05-18T16:42:58.609Z,8.43
2018-05-18T16:45:24.361Z,8.27
2018-05-18T16:47:50.098Z,7.87
2018-05-18T16:50:15.833Z,7.87
2018-05-18T16:52:41.561Z,7.93
2018-05-18T16:55:07.305Z,7.67
2018-05-18T16:57:33.020Z,7.67
2018-05-18T16:59:58.779Z,8.63
2018-05-18T17:02:24.521Z,8.27
2018-05-18T17:04:50.249Z,7.77
2018-05-18T17:07:16.008Z,9.07
2018-05-18T17:09:41.753Z,8.73
2018-05-18T17:12:08.605Z,9.20
2018-05-18T17:14:34.496Z,9.40
2018-05-18T17:17:00.244Z,8.70
2018-05-18T17:19:25.980Z,8.60
2018-05-18T17:21:51.741Z,9.33
2018-05-18T17:24:17.459Z,8.43
2018-05-18T17:26:43.201Z,9.07
2018-05-18T17:29:08.941Z,9.47
2018-05-18T17:31:34.669Z,8.70
2018-05-18T17:34:00.388Z,9.70
2018-05-18T17:36:26.124Z,9.13
2018-05-18T17:38:51.860Z,9.67
2018-05-18T17:41:17.772Z,8.30
2018-05-18T17:43:43.500Z,9.87
2018-05-18T17:46:09.253Z,9.60
2018-05-18T17:48:34.984Z,8.63
2018-05-18T17:51:00.716Z,8.13
2018-05-18T17:53:26.445Z,8.13
2018-05-18T17:55:53.328Z,8.60
2018-05-18T17:58:19.089Z,10.33
2018-05-18T18:00:44.827Z,8.40
2018-05-18T18:03:10.776Z,9.50
2018-05-18T18:05:36.506Z,8.27
2018-05-18T18:08:02.236Z,9.70
2018-05-18T18:10:27.967Z,8.13
2018-05-18T18:12:54.139Z,8.23
2018-05-18T18:15:19.880Z,8.30
2018-05-18T18:17:47.860Z,7.80
2018-05-18T18:20:13.635Z,9.27
2018-05-18T18:22:39.361Z,8.03
2018-05-18T18:25:05.102Z,8.60
2018-05-18T18:27:30.825Z,7.77
2018-05-18T18:29:56.566Z,7.73
2018-05-18T18:32:22.296Z,7.90
2018-05-18T18:34:48.024Z,7.87
2018-05-18T18:37:19.315Z,8.00
2018-05-18T18:39:47.539Z,7.27
2018-05-18T18:42:13.561Z,7.73
2018-05-18T18:44:41.503Z,7.40
2018-05-18T18:47:07.272Z,7.33
2018-05-18T18:49:32.993Z,8.10
2018-05-18T18:51:58.822Z,7.17
2018-05-18T18:54:24.511Z,8.60
2018-05-18T18:56:50.264Z,7.93
2018-05-18T18:59:16.000Z,7.97
2018-05-18T19:01:41.731Z,9.17
2018-05-18T19:04:07.468Z,7.70
2018-05-18T19:06:33.244Z,8.43
2018-05-18T19:08:58.994Z,8.47
2018-05-18T19:11:24.740Z,8.63
2018-05-18T19:13:50.508Z,7.53
2018-05-18T19:16:16.289Z,8.33
2018-05-18T19:18:42.060Z,7.30
2018-05-18T19:21:07.828Z,8.50
2018-05-18T19:23:33.591Z,8.07
2018-05-18T19:25:59.329Z,8.93
2018-05-18T19:28:25.078Z,8.23
2018-05-18T19:30:50.800Z,8.50
2018-05-18T19:33:16.554Z,8.30
2018-05-18T19:35:42.356Z,8.57
2018-05-18T19:38:08.152Z,9.17
2018-05-18T19:40:33.913Z,9.67
2018-05-18T19:46:02.304Z,7.80
2018-05-18T19:48:28.055Z,8.80
2018-05-18T19:50:53.834Z,9.80
2018-05-18T19:53:19.540Z,9.20
2018-05-18T19:55:45.277Z,8.00
2018-05-18T19:58:11.023Z,8.67
2018-05-18T20:00:36.752Z,9.13
2018-05-18T20:03:02.485Z,9.00
2018-05-18T20:05:28.212Z,8.00
2018-05-18T20:07:53.964Z,8.83
2018-05-18T20:10:19.698Z,9.10
2018-05-18T20:12:45.469Z,8.53
2018-05-18T20:15:11.205Z,11.73
2018-05-18T20:17:36.956Z,10.87
2018-05-18T20:20:02.706Z,9.77
2018-05-18T20:22:28.459Z,8.83
2018-05-18T20:24:54.264Z,9.47
2018-05-18T20:30:22.853Z,9.47
2018-05-18T20:32:48.621Z,9.60
2018-05-18T20:35:14.363Z,8.50
2018-05-18T20:37:40.129Z,7.97
2018-05-18T20:40:05.861Z,8.43
2018-05-18T20:42:31.607Z,8.50
2018-05-18T20:44:57.354Z,7.67
2018-05-18T20:47:23.103Z,8.07
2018-05-18T20:49:48.881Z,7.87
2018-05-18T20:52:14.628Z,8.00
2018-05-18T20:54:40.356Z,7.70
2018-05-18T20:57:06.112Z,7.33
2018-05-18T20:59:31.851Z,8.90
2018-05-18T21:01:57.601Z,7.73
2018-05-18T21:04:23.352Z,8.97
2018-05-18T21:06:49.125Z,9.63
2018-05-18T21:12:17.405Z,8.60
2018-05-18T21:14:43.187Z,9.17
2018-05-18T21:17:08.976Z,9.70
2018-05-18T21:19:34.766Z,8.30
2018-05-18T21:22:00.733Z,8.47
2018-05-18T21:24:26.521Z,8.77
2018-05-18T21:26:52.315Z,9.03
2018-05-18T21:29:18.089Z,9.17
2018-05-18T21:31:44.195Z,9.30
2018-05-18T21:34:09.943Z,10.17
2018-05-18T21:36:35.681Z,9.73
2018-05-18T21:39:01.408Z,9.50
2018-05-18T21:41:27.134Z,9.20
2018-05-18T21:43:52.860Z,9.67
2018-05-18T21:46:18.587Z,9.03
2018-05-18T21:48:44.332Z,9.53
2018-05-18T21:51:10.069Z,10.17
2018-05-18T21:53:35.795Z,9.60
2018-05-18T21:56:01.516Z,8.80
2018-05-18T21:58:27.260Z,8.77
2018-05-18T22:00:53.008Z,9.10
2018-05-18T22:03:18.750Z,9.27
2018-05-18T22:05:44.477Z,9.50
2018-05-18T22:08:10.214Z,10.47
2018-05-18T22:10:35.937Z,9.83
2018-05-18T22:13:01.704Z,9.57
2018-05-18T22:15:27.432Z,9.40
2018-05-18T22:17:53.187Z,10.20
2018-05-18T22:20:18.915Z,10.10
2018-05-18T22:22:44.642Z,9.67
2018-05-18T22:25:10.404Z,9.93
2018-05-18T22:27:36.174Z,10.47
2018-05-18T22:30:01.919Z,9.03
2018-05-18T22:32:27.652Z,8.93
2018-05-18T22:34:53.377Z,9.50
2018-05-18T22:37:19.104Z,8.87
2018-05-18T22:39:44.824Z,9.93
2018-05-18T22:42:10.548Z,9.10
2018-05-18T22:44:36.280Z,9.00
2018-05-18T22:47:02.020Z,9.03
2018-05-18T22:49:27.752Z,8.97
2018-05-18T22:51:53.481Z,9.20
2018-05-18T22:54:19.214Z,9.57
2018-05-18T22:56:44.935Z,9.77
2018-05-18T22:59:10.669Z,8.87
2018-05-18T23:01:37.191Z,8.37
2018-05-18T23:04:02.944Z,8.50
2018-05-18T23:06:28.668Z,8.40
2018-05-18T23:08:54.425Z,8.20
2018-05-18T23:11:20.299Z,8.77
2018-05-18T23:13:46.046Z,8.87
2018-05-18T23:16:11.775Z,9.03
2018-05-18T23:18:37.503Z,7.90
2018-05-18T23:21:03.222Z,8.70
2018-05-18T23:23:28.975Z,9.20
2018-05-18T23:25:54.690Z,8.40
2018-05-18T23:28:20.449Z,7.83
2018-05-18T23:30:46.177Z,8.37
2018-05-18T23:33:18.775Z,8.83
2018-05-18T23:35:44.531Z,9.43
2018-05-18T23:38:10.716Z,9.27
2018-05-18T23:40:36.509Z,9.60
2018-05-18T23:43:02.254Z,10.03
2018-05-18T23:45:28.128Z,10.43
2018-05-18T23:47:53.888Z,9.80
2018-05-18T23:50:19.612Z,10.87
2018-05-18T23:52:45.329Z,10.03
2018-05-18T23:55:11.076Z,11.30
2018-05-18T23:57:36.813Z,11.17
